Time;durP1;ratioP1;P1;durP2;ratioP2;P2;SDS_P1;SDS_P2;PMS_P1;PMS_P2;Temp;Humidity;BMP_temperature;BMP_pressure;BME280_temperature;BME280_humidity;BME280_pressure;Samples;Min_cycle;Max_cycle;Signal;HPM_P1;HPM_P2
2021/07/12 00:00:32;;;;;;;10.23;7.78;;;;;;;;;;5072583;28;20021;-82
2021/07/12 00:02:59;;;;;;;12.35;8.48;;;;;;;;;;5069944;28;20027;-82
2021/07/12 00:05:28;;;;;;;10.35;7.78;;;;;;;;;;5047318;28;20300;-82
2021/07/12 00:07:54;;;;;;;10.43;7.40;;;;;;;;;;5064911;28;20483;-82
2021/07/12 00:10:22;;;;;;;10.93;7.32;;;;;;;;;;5071834;28;20529;-83
2021/07/12 00:12:51;;;;;;;13.85;7.97;;;;;;;;;;5074328;28;20085;-82
2021/07/12 00:15:18;;;;;;;13.75;8.10;;;;;;;;;;5073964;28;20028;-83
2021/07/12 00:17:46;;;;;;;15.00;9.23;;;;;;;;;;5059422;28;20247;-83
2021/07/12 00:20:13;;;;;;;13.35;9.35;;;;;;;;;;5074592;28;20025;-83
2021/07/12 00:22:40;;;;;;;15.15;9.50;;;;;;;;;;5054046;28;20480;-73
2021/07/12 00:25:07;;;;;;;16.63;9.70;;;;;;;;;;5055214;28;20023;-83
2021/07/12 00:27:34;;;;;;;13.43;9.40;;;;;;;;;;5059407;28;20040;-82
2021/07/12 00:30:00;;;;;;;18.13;9.40;;;;;;;;;;5054074;28;20024;-82
2021/07/12 00:32:28;;;;;;;13.65;8.65;;;;;;;;;;5054234;28;20033;-82
2021/07/12 00:34:54;;;;;;;14.77;8.82;;;;;;;;;;5036021;28;20064;-81
2021/07/12 00:37:20;;;;;;;11.80;7.20;;;;;;;;;;5053912;28;20045;-81
2021/07/12 00:39:45;;;;;;;10.98;7.22;;;;;;;;;;5054533;28;20024;-82
2021/07/12 00:42:10;;;;;;;10.32;7.28;;;;;;;;;;5068154;28;20024;-82
2021/07/12 00:44:36;;;;;;;11.30;6.90;;;;;;;;;;5073818;28;20294;-82
2021/07/12 00:47:05;;;;;;;11.30;7.05;;;;;;;;;;5068280;28;20029;-81
2021/07/12 00:49:31;;;;;;;11.15;7.25;;;;;;;;;;5053696;28;20488;-83
2021/07/12 00:51:57;;;;;;;11.80;7.32;;;;;;;;;;5055902;28;20111;-82
2021/07/12 00:54:27;;;;;;;12.65;8.15;;;;;;;;;;5053587;28;20116;-82
2021/07/12 00:56:58;;;;;;;10.63;7.38;;;;;;;;;;5062304;28;20529;-82
2021/07/12 00:59:27;;;;;;;11.70;7.38;;;;;;;;;;5073118;28;20028;-83
2021/07/12 01:01:53;;;;;;;11.15;7.65;;;;;;;;;;5055301;28;20031;-83
2021/07/12 01:04:20;;;;;;;10.30;8.30;;;;;;;;;;5068862;28;20039;-82
2021/07/12 01:06:46;;;;;;;13.43;7.93;;;;;;;;;;5054259;28;20029;-82
2021/07/12 01:09:11;;;;;;;12.75;7.78;;;;;;;;;;5074193;28;20081;-83
2021/07/12 01:11:48;;;;;;;12.63;9.13;;;;;;;;;;5071363;28;20020;-83
2021/07/12 01:14:17;;;;;;;9.57;7.88;;;;;;;;;;5068291;28;20075;-82
2021/07/12 01:17:18;;;;;;;10.70;7.32;;;;;;;;;;5062893;28;20064;-83
2021/07/12 01:19:56;;;;;;;11.85;6.90;;;;;;;;;;5010726;28;20037;-82
2021/07/12 01:22:45;;;;;;;9.90;6.65;;;;;;;;;;5063701;28;20094;-82
2021/07/12 01:25:32;;;;;;;11.23;7.60;;;;;;;;;;5071043;28;20021;-83
2021/07/12 01:27:58;;;;;;;11.88;7.40;;;;;;;;;;5070990;28;20033;-84
2021/07/12 01:30:56;;;;;;;10.13;7.72;;;;;;;;;;5073692;28;20170;-83
2021/07/12 01:33:30;;;;;;;10.38;7.75;;;;;;;;;;5062131;28;20037;-83
2021/07/12 01:36:04;;;;;;;10.48;8.02;;;;;;;;;;5074560;28;20032;-83
2021/07/12 01:38:39;;;;;;;;;;;;;;;;;;5058393;28;20013;-84
2021/07/12 01:41:49;;;;;;;12.80;8.27;;;;;;;;;;5064355;28;20036;-83
2021/07/12 01:45:06;;;;;;;12.68;7.93;;;;;;;;;;5055704;28;20401;-84
2021/07/12 01:47:50;;;;;;;14.95;7.63;;;;;;;;;;5021082;28;20439;-84
2021/07/12 01:50:31;;;;;;;10.20;7.57;;;;;;;;;;5065429;28;20081;-83
2021/07/12 01:53:11;;;;;;;9.55;7.00;;;;;;;;;;5073749;28;20035;-84
2021/07/12 01:56:00;;;;;;;13.05;7.65;;;;;;;;;;5063244;28;20145;-83
2021/07/12 01:58:40;;;;;;;10.57;8.63;;;;;;;;;;5071960;28;20088;-83
2021/07/12 02:01:07;;;;;;;12.52;7.95;;;;;;;;;;5068585;28;20025;-82
2021/07/12 02:03:33;;;;;;;10.45;6.32;;;;;;;;;;5053200;28;20499;-82
2021/07/12 02:06:03;;;;;;;10.07;7.63;;;;;;;;;;5055241;28;20036;-83
2021/07/12 02:08:31;;;;;;;11.60;7.47;;;;;;;;;;5056549;28;20036;-82
2021/07/12 02:10:57;;;;;;;11.80;7.95;;;;;;;;;;5062299;28;20091;-82
2021/07/12 02:13:24;;;;;;;11.48;6.72;;;;;;;;;;5059743;28;20338;-83
2021/07/12 02:15:53;;;;;;;11.25;6.75;;;;;;;;;;5059005;28;20024;-83
2021/07/12 02:18:25;;;;;;;10.57;6.60;;;;;;;;;;5055746;28;20035;-81
2021/07/12 02:20:51;;;;;;;8.88;6.53;;;;;;;;;;5053119;28;20469;-82
2021/07/12 02:23:17;;;;;;;12.70;7.15;;;;;;;;;;5051727;28;20032;-82
2021/07/12 02:25:44;;;;;;;9.68;6.60;;;;;;;;;;5053422;28;20116;-82
2021/07/12 02:28:11;;;;;;;13.23;7.70;;;;;;;;;;5058806;28;20024;-81
2021/07/12 02:30:37;;;;;;;12.18;8.20;;;;;;;;;;5074669;28;20081;-81
2021/07/12 02:33:03;;;;;;;12.70;8.43;;;;;;;;;;5075471;28;20024;-81
2021/07/12 02:35:31;;;;;;;12.55;8.25;;;;;;;;;;5072869;28;20384;-81
2021/07/12 02:37:57;;;;;;;9.27;7.25;;;;;;;;;;5070254;28;20021;-81
2021/07/12 02:40:24;;;;;;;10.35;7.60;;;;;;;;;;5066015;28;20049;-81
2021/07/12 02:42:52;;;;;;;12.70;7.90;;;;;;;;;;5069689;28;20055;-81
2021/07/12 02:45:19;;;;;;;11.82;7.15;;;;;;;;;;5054448;28;20033;-82
2021/07/12 02:47:47;;;;;;;14.15;7.85;;;;;;;;;;5065573;28;20056;-80
2021/07/12 02:50:15;;;;;;;14.20;8.52;;;;;;;;;;5071810;28;20107;-80
2021/07/12 02:53:10;;;;;;;15.68;6.32;;;;;;;;;;5064614;28;20040;-79
2021/07/12 02:55:36;;;;;;;13.65;6.25;;;;;;;;;;5065532;28;20040;-80
2021/07/12 02:58:02;;;;;;;11.93;6.50;;;;;;;;;;5065785;28;20028;-80
2021/07/12 03:00:27;;;;;;;16.23;7.80;;;;;;;;;;5051013;28;20075;-80
2021/07/12 03:02:54;;;;;;;14.63;8.10;;;;;;;;;;5060897;28;20033;-80
2021/07/12 03:05:19;;;;;;;22.05;9.38;;;;;;;;;;5068636;28;20111;-80
2021/07/12 03:07:50;;;;;;;20.33;10.02;;;;;;;;;;5042368;28;20124;-80
2021/07/12 03:10:19;;;;;;;24.83;10.38;;;;;;;;;;5071822;28;20379;-79
2021/07/12 03:12:50;;;;;;;23.30;11.32;;;;;;;;;;5059086;28;20047;-79
2021/07/12 03:15:19;;;;;;;30.95;12.60;;;;;;;;;;5058961;28;20073;-72
2021/07/12 03:17:48;;;;;;;25.98;11.77;;;;;;;;;;5061280;28;20055;-72
2021/07/12 03:20:15;;;;;;;49.80;12.15;;;;;;;;;;5053920;28;20029;-72
2021/07/12 03:22:42;;;;;;;26.35;13.30;;;;;;;;;;5054555;28;20060;-72
2021/07/12 03:25:10;;;;;;;44.47;13.38;;;;;;;;;;5074198;28;20040;-72
2021/07/12 03:27:37;;;;;;;61.80;12.70;;;;;;;;;;5076410;28;20380;-72
2021/07/12 03:30:06;;;;;;;106.40;12.68;;;;;;;;;;5076087;28;20039;-72
2021/07/12 03:32:33;;;;;;;85.78;12.75;;;;;;;;;;5060304;28;20032;-73
2021/07/12 03:35:00;;;;;;;84.97;12.77;;;;;;;;;;5057352;28;20025;-72
2021/07/12 03:37:26;;;;;;;80.43;13.50;;;;;;;;;;5066396;28;20032;-72
2021/07/12 03:39:52;;;;;;;122.32;13.00;;;;;;;;;;5057266;28;20037;-72
2021/07/12 03:42:20;;;;;;;119.80;13.90;;;;;;;;;;5076071;28;20480;-72
2021/07/12 03:44:46;;;;;;;148.90;13.68;;;;;;;;;;5077346;28;20028;-72
2021/07/12 03:47:32;;;;;;;112.80;13.13;;;;;;;;;;5064289;28;20025;-71
2021/07/12 03:50:10;;;;;;;70.15;11.75;;;;;;;;;;5061043;28;20493;-71
2021/07/12 03:52:46;;;;;;;82.28;12.70;;;;;;;;;;5077172;28;20029;-72
2021/07/12 03:55:16;;;;;;;90.05;10.90;;;;;;;;;;5077220;28;20411;-72
2021/07/12 03:57:43;;;;;;;65.05;10.07;;;;;;;;;;5076605;28;20055;-72
2021/07/12 04:00:11;;;;;;;48.90;11.60;;;;;;;;;;5063989;28;20041;-71
2021/07/12 04:02:37;;;;;;;55.72;11.02;;;;;;;;;;5070441;28;20115;-72
2021/07/12 04:05:05;;;;;;;83.03;10.40;;;;;;;;;;5064336;28;20144;-71
2021/07/12 04:07:31;;;;;;;78.95;10.43;;;;;;;;;;5057119;28;20547;-71
2021/07/12 04:09:59;;;;;;;63.58;11.27;;;;;;;;;;5057183;28;20096;-71
2021/07/12 04:12:24;;;;;;;72.38;11.10;;;;;;;;;;5065501;28;20044;-71
2021/07/12 04:14:54;;;;;;;46.03;11.02;;;;;;;;;;5076879;28;20036;-71
2021/07/12 04:17:20;;;;;;;60.20;10.90;;;;;;;;;;5070967;28;20023;-71
2021/07/12 04:19:46;;;;;;;40.75;11.05;;;;;;;;;;5069897;28;20405;-72
2021/07/12 04:22:12;;;;;;;24.00;9.95;;;;;;;;;;5076996;28;20024;-72
2021/07/12 04:24:38;;;;;;;35.10;10.57;;;;;;;;;;5076659;28;20510;-72
2021/07/12 04:27:04;;;;;;;36.80;10.77;;;;;;;;;;5075966;28;20031;-72
2021/07/12 04:29:29;;;;;;;31.20;10.93;;;;;;;;;;5076816;28;20392;-73
2021/07/12 04:31:56;;;;;;;21.25;10.75;;;;;;;;;;5066396;28;20020;-73
2021/07/12 04:34:23;;;;;;;23.65;10.52;;;;;;;;;;5055466;28;20029;-73
2021/07/12 04:36:48;;;;;;;19.15;11.38;;;;;;;;;;5056726;28;20375;-73
2021/07/12 04:39:14;;;;;;;16.55;10.68;;;;;;;;;;5060229;28;20037;-73
2021/07/12 04:41:39;;;;;;;17.48;11.18;;;;;;;;;;5035542;28;20075;-73
2021/07/12 04:44:07;;;;;;;16.00;10.77;;;;;;;;;;5055562;28;20024;-73
2021/07/12 04:46:33;;;;;;;20.15;11.18;;;;;;;;;;5066587;28;20035;-73
2021/07/12 04:48:58;;;;;;;18.45;12.07;;;;;;;;;;5062894;28;20464;-72
2021/07/12 04:51:24;;;;;;;20.00;12.25;;;;;;;;;;5064925;28;20021;-72
2021/07/12 04:53:50;;;;;;;19.23;11.90;;;;;;;;;;5062033;28;20035;-72
2021/07/12 04:56:15;;;;;;;18.98;12.70;;;;;;;;;;5071574;28;20028;-73
2021/07/12 04:58:46;;;;;;;29.83;17.10;;;;;;;;;;5073430;28;20060;-73
2021/07/12 05:01:11;;;;;;;28.60;16.70;;;;;;;;;;5072758;28;20024;-73
2021/07/12 05:03:37;;;;;;;21.13;16.17;;;;;;;;;;5063300;28;20551;-73
2021/07/12 05:06:03;;;;;;;21.33;13.63;;;;;;;;;;5065332;28;20021;-72
2021/07/12 05:08:29;;;;;;;18.63;14.20;;;;;;;;;;5054251;28;20107;-72
2021/07/12 05:10:55;;;;;;;16.40;13.05;;;;;;;;;;5055548;28;20036;-72
2021/07/12 05:13:21;;;;;;;15.93;13.25;;;;;;;;;;5055344;28;20045;-73
2021/07/12 05:15:46;;;;;;;15.20;12.57;;;;;;;;;;5072136;28;20135;-72
2021/07/12 05:18:12;;;;;;;15.57;12.00;;;;;;;;;;5077236;28;20092;-72
2021/07/12 05:20:38;;;;;;;15.43;12.63;;;;;;;;;;5056875;28;20326;-72
2021/07/12 05:23:03;;;;;;;14.70;11.38;;;;;;;;;;5052857;28;20031;-73
2021/07/12 05:25:29;;;;;;;11.77;10.57;;;;;;;;;;5052555;28;20074;-72
2021/07/12 05:27:54;;;;;;;12.48;11.13;;;;;;;;;;5053199;28;20036;-72
2021/07/12 05:30:20;;;;;;;13.80;11.55;;;;;;;;;;5072016;28;20017;-72
2021/07/12 05:32:46;;;;;;;12.75;11.45;;;;;;;;;;5070408;28;20052;-72
2021/07/12 05:35:12;;;;;;;10.80;9.75;;;;;;;;;;5072148;28;20028;-72
2021/07/12 05:37:38;;;;;;;10.65;9.55;;;;;;;;;;5070006;28;20422;-72
2021/07/12 05:40:05;;;;;;;10.68;8.95;;;;;;;;;;5068490;28;20033;-72
2021/07/12 05:42:30;;;;;;;9.50;8.55;;;;;;;;;;5056781;28;20064;-72
2021/07/12 05:44:57;;;;;;;10.13;9.05;;;;;;;;;;5055225;28;20118;-71
2021/07/12 05:47:23;;;;;;;10.43;9.10;;;;;;;;;;5070108;28;20383;-72
2021/07/12 05:49:48;;;;;;;12.98;8.98;;;;;;;;;;5065954;28;20063;-73
2021/07/12 05:52:14;;;;;;;11.43;8.40;;;;;;;;;;5070826;28;20151;-72
2021/07/12 05:54:39;;;;;;;12.13;7.75;;;;;;;;;;5072117;28;20025;-71
2021/07/12 05:57:05;;;;;;;9.30;7.50;;;;;;;;;;5061010;28;20021;-72
2021/07/12 05:59:31;;;;;;;10.57;7.25;;;;;;;;;;5067026;28;20039;-71
2021/07/12 06:01:56;;;;;;;7.10;6.40;;;;;;;;;;5069497;28;20490;-71
2021/07/12 06:04:22;;;;;;;8.32;6.78;;;;;;;;;;5061581;28;20024;-72
2021/07/12 06:06:47;;;;;;;10.25;7.53;;;;;;;;;;5071765;28;20021;-78
2021/07/12 06:09:13;;;;;;;10.88;7.22;;;;;;;;;;5072410;28;20021;-76
2021/07/12 06:11:39;;;;;;;9.52;6.75;;;;;;;;;;5065399;28;20064;-77
2021/07/12 06:14:04;;;;;;;7.75;6.45;;;;;;;;;;5063875;28;20048;-79
2021/07/12 06:16:30;;;;;;;7.15;6.40;;;;;;;;;;5067068;28;20021;-80
2021/07/12 06:18:56;;;;;;;9.40;6.72;;;;;;;;;;5060204;28;20108;-77
2021/07/12 06:21:21;;;;;;;10.18;6.45;;;;;;;;;;5079399;28;20432;-78
2021/07/12 06:23:47;;;;;;;7.13;6.00;;;;;;;;;;5066492;28;20391;-80
2021/07/12 06:26:13;;;;;;;7.85;5.68;;;;;;;;;;5071962;28;20494;-79
2021/07/12 06:28:38;;;;;;;6.93;5.50;;;;;;;;;;5067279;28;20032;-79
2021/07/12 06:31:03;;;;;;;5.60;5.00;;;;;;;;;;5053636;28;20022;-79
2021/07/12 06:33:31;;;;;;;6.18;5.50;;;;;;;;;;5063053;28;20016;-78
2021/07/12 06:35:56;;;;;;;7.30;5.20;;;;;;;;;;5051720;28;20025;-78
2021/07/12 06:38:22;;;;;;;6.45;5.15;;;;;;;;;;5060544;28;20028;-78
2021/07/12 06:40:48;;;;;;;10.00;5.20;;;;;;;;;;5033730;28;20020;-78
2021/07/12 06:43:14;;;;;;;7.00;5.28;;;;;;;;;;5061378;28;20464;-79
2021/07/12 06:45:39;;;;;;;7.63;5.07;;;;;;;;;;5070492;28;20021;-77
2021/07/12 06:48:06;;;;;;;5.95;4.75;;;;;;;;;;5063864;28;20118;-76
2021/07/12 06:50:32;;;;;;;5.93;4.60;;;;;;;;;;5068049;28;20047;-77
2021/07/12 06:52:58;;;;;;;5.15;4.00;;;;;;;;;;5066987;28;20017;-78
2021/07/12 06:55:23;;;;;;;5.85;4.55;;;;;;;;;;5051280;28;20581;-78
2021/07/12 06:57:56;;;;;;;7.53;4.63;;;;;;;;;;5058607;28;20086;-76
2021/07/12 07:00:22;;;;;;;8.75;4.53;;;;;;;;;;5060200;28;20457;-78
2021/07/12 07:02:47;;;;;;;5.68;4.82;;;;;;;;;;5063742;28;20067;-78
2021/07/12 07:05:13;;;;;;;6.63;5.10;;;;;;;;;;5062309;28;20035;-78
2021/07/12 07:07:38;;;;;;;5.18;4.68;;;;;;;;;;5050725;28;20089;-78
2021/07/12 07:10:08;;;;;;;7.82;5.03;;;;;;;;;;5033348;28;20033;-78
2021/07/12 07:12:34;;;;;;;5.30;4.22;;;;;;;;;;5051760;28;20527;-78
2021/07/12 07:15:00;;;;;;;5.47;4.38;;;;;;;;;;5065657;28;20430;-77
2021/07/12 07:17:25;;;;;;;5.30;4.40;;;;;;;;;;5062923;28;20020;-78
2021/07/12 07:19:51;;;;;;;6.22;4.72;;;;;;;;;;5064627;28;20111;-77
2021/07/12 07:22:17;;;;;;;6.40;4.40;;;;;;;;;;5070873;28;20025;-76
2021/07/12 07:24:43;;;;;;;6.22;3.92;;;;;;;;;;5065623;28;20029;-78
2021/07/12 07:27:09;;;;;;;4.97;4.10;;;;;;;;;;5050729;28;20037;-79
2021/07/12 07:29:35;;;;;;;5.68;3.80;;;;;;;;;;5054156;28;20024;-79
2021/07/12 07:32:01;;;;;;;6.15;3.75;;;;;;;;;;5058007;28;20059;-79
2021/07/12 07:34:26;;;;;;;4.97;4.20;;;;;;;;;;5052117;28;20065;-78
2021/07/12 07:36:51;;;;;;;4.82;3.42;;;;;;;;;;5050583;28;20473;-79
2021/07/12 07:39:17;;;;;;;5.50;3.72;;;;;;;;;;5057907;28;20035;-79
2021/07/12 07:41:42;;;;;;;5.35;3.75;;;;;;;;;;5063744;28;20033;-79
2021/07/12 07:44:08;;;;;;;5.13;3.63;;;;;;;;;;5060592;28;20456;-79
2021/07/12 07:46:34;;;;;;;5.35;4.07;;;;;;;;;;5051932;28;20029;-79
2021/07/12 07:49:02;;;;;;;4.55;3.70;;;;;;;;;;5054198;28;20031;-78
2021/07/12 07:51:27;;;;;;;5.13;3.83;;;;;;;;;;5050606;28;20526;-79
2021/07/12 07:53:53;;;;;;;4.60;3.90;;;;;;;;;;5055991;28;20032;-79
2021/07/12 07:56:21;;;;;;;4.88;3.70;;;;;;;;;;5055082;28;20047;-81
2021/07/12 07:58:46;;;;;;;4.13;3.45;;;;;;;;;;5054573;28;20048;-77
2021/07/12 08:01:12;;;;;;;4.10;3.40;;;;;;;;;;5061926;28;20056;-80
2021/07/12 08:03:37;;;;;;;5.57;3.63;;;;;;;;;;5060775;28;20040;-78
2021/07/12 08:06:03;;;;;;;6.55;4.05;;;;;;;;;;5055018;28;20028;-79
2021/07/12 08:08:30;;;;;;;5.32;3.47;;;;;;;;;;5061838;28;20071;-79
2021/07/12 08:10:56;;;;;;;6.10;3.08;;;;;;;;;;5052425;28;20024;-78
2021/07/12 08:13:24;;;;;;;3.28;2.78;;;;;;;;;;5053908;28;20048;-80
2021/07/12 08:15:50;;;;;;;3.67;3.22;;;;;;;;;;5056921;28;20494;-78
2021/07/12 08:18:16;;;;;;;8.70;3.65;;;;;;;;;;5072349;28;20329;-79
2021/07/12 08:20:45;;;;;;;4.40;3.70;;;;;;;;;;5058025;28;20029;-78
2021/07/12 08:23:10;;;;;;;4.65;3.20;;;;;;;;;;5058902;28;20054;-79
2021/07/12 08:25:36;;;;;;;4.43;3.10;;;;;;;;;;5077599;28;20056;-79
2021/07/12 08:28:03;;;;;;;4.28;3.05;;;;;;;;;;5073883;28;20020;-80
2021/07/12 08:30:29;;;;;;;5.80;3.50;;;;;;;;;;5070557;28;20028;-79
2021/07/12 08:32:54;;;;;;;5.30;3.30;;;;;;;;;;5063436;28;20357;-80
2021/07/12 08:35:20;;;;;;;4.85;3.50;;;;;;;;;;5063338;28;20094;-79
2021/07/12 08:37:49;;;;;;;12.48;3.97;;;;;;;;;;5061056;28;20043;-79
2021/07/12 08:40:15;;;;;;;4.00;3.35;;;;;;;;;;5062607;28;20021;-79
2021/07/12 08:42:44;;;;;;;4.10;3.38;;;;;;;;;;5053500;28;20442;-79
2021/07/12 08:45:10;;;;;;;8.52;3.20;;;;;;;;;;5063629;28;20456;-79
2021/07/12 08:47:36;;;;;;;4.05;3.22;;;;;;;;;;5053476;28;20082;-79
2021/07/12 08:50:04;;;;;;;5.03;3.42;;;;;;;;;;5064254;28;20126;-78
2021/07/12 08:52:29;;;;;;;3.97;3.20;;;;;;;;;;5068267;28;20037;-80
2021/07/12 08:54:55;;;;;;;4.90;3.60;;;;;;;;;;5063222;28;20032;-78
2021/07/12 08:57:21;;;;;;;5.65;3.63;;;;;;;;;;5072315;28;20275;-78
2021/07/12 08:59:46;;;;;;;4.22;3.53;;;;;;;;;;5061862;28;20476;-80
2021/07/12 09:02:13;;;;;;;5.13;3.30;;;;;;;;;;5064630;28;20025;-77
2021/07/12 09:04:44;;;;;;;4.22;3.38;;;;;;;;;;5062436;28;20024;-72
2021/07/12 09:07:12;;;;;;;4.25;3.40;;;;;;;;;;5061340;28;20097;-71
2021/07/12 09:09:39;;;;;;;4.72;3.22;;;;;;;;;;5058386;28;20028;-72
2021/07/12 09:12:15;;;;;;;4.25;2.97;;;;;;;;;;5068864;28;20431;-72
2021/07/12 09:15:04;;;;;;;4.57;3.45;;;;;;;;;;5063518;28;20049;-71
2021/07/12 09:17:36;;;;;;;4.72;3.40;;;;;;;;;;5067797;28;20016;-71
2021/07/12 09:20:05;;;;;;;3.63;3.10;;;;;;;;;;5073399;28;20032;-73
2021/07/12 09:22:36;;;;;;;3.47;2.80;;;;;;;;;;5071508;28;20021;-72
2021/07/12 09:25:06;;;;;;;4.93;3.08;;;;;;;;;;5064895;28;20070;-71
2021/07/12 09:27:33;;;;;;;3.35;3.00;;;;;;;;;;5066404;28;20448;-71
2021/07/12 09:30:01;;;;;;;3.10;2.75;;;;;;;;;;5064065;28;20032;-72
2021/07/12 09:32:30;;;;;;;5.70;3.20;;;;;;;;;;5068388;28;20025;-72
2021/07/12 09:35:01;;;;;;;4.25;3.00;;;;;;;;;;5055017;28;20025;-72
2021/07/12 09:37:29;;;;;;;4.45;2.95;;;;;;;;;;5067612;28;20028;-70
2021/07/12 09:39:56;;;;;;;4.45;2.90;;;;;;;;;;5058520;28;20043;-70
2021/07/12 09:42:27;;;;;;;4.47;2.97;;;;;;;;;;5060684;28;20036;-70
2021/07/12 09:44:55;;;;;;;4.93;3.20;;;;;;;;;;5065712;28;20108;-71
2021/07/12 09:47:24;;;;;;;4.57;2.58;;;;;;;;;;5064548;28;20032;-70
2021/07/12 09:49:52;;;;;;;3.88;2.78;;;;;;;;;;5062305;28;20021;-71
2021/07/12 09:52:24;;;;;;;3.80;3.00;;;;;;;;;;5062696;28;20025;-71
2021/07/12 09:54:50;;;;;;;3.15;2.42;;;;;;;;;;5053954;28;20029;-71
2021/07/12 09:57:18;;;;;;;4.03;2.90;;;;;;;;;;5062134;28;20078;-71
2021/07/12 10:00:23;;;;;;;3.72;2.85;;;;;;;;;;5064232;28;20032;-70
2021/07/12 10:02:51;;;;;;;4.25;2.80;;;;;;;;;;5057352;28;20056;-73
2021/07/12 10:05:17;;;;;;;3.20;2.53;;;;;;;;;;5061033;28;20466;-73
2021/07/12 10:07:44;;;;;;;3.78;2.70;;;;;;;;;;5058748;28;20029;-73
2021/07/12 10:10:13;;;;;;;5.10;2.80;;;;;;;;;;5066677;28;20199;-72
2021/07/12 10:12:41;;;;;;;4.00;2.92;;;;;;;;;;5071815;28;20036;-72
2021/07/12 10:15:08;;;;;;;2.55;2.17;;;;;;;;;;5069090;28;20027;-72
2021/07/12 10:17:33;;;;;;;3.15;2.45;;;;;;;;;;5051961;28;20560;-74
2021/07/12 10:19:59;;;;;;;3.30;2.70;;;;;;;;;;5060826;28;20029;-74
2021/07/12 10:22:25;;;;;;;5.10;2.95;;;;;;;;;;5058841;28;20503;-73
2021/07/12 10:24:52;;;;;;;3.72;2.50;;;;;;;;;;5051879;28;20029;-72
2021/07/12 10:27:22;;;;;;;5.18;2.88;;;;;;;;;;5034711;28;20036;-71
2021/07/12 10:29:50;;;;;;;5.05;2.47;;;;;;;;;;5050663;28;20496;-74
2021/07/12 10:32:18;;;;;;;4.65;2.60;;;;;;;;;;5049712;28;20024;-73
2021/07/12 10:34:49;;;;;;;4.57;2.55;;;;;;;;;;5052155;28;20031;-72
2021/07/12 10:37:22;;;;;;;5.15;2.83;;;;;;;;;;5054945;28;20104;-74
2021/07/12 10:39:57;;;;;;;4.53;3.00;;;;;;;;;;5056172;28;20032;-72
2021/07/12 10:42:41;;;;;;;3.70;2.70;;;;;;;;;;5062842;28;20025;-72
2021/07/12 10:45:37;;;;;;;3.67;2.45;;;;;;;;;;5071348;28;20024;-72
2021/07/12 10:48:10;;;;;;;3.92;2.67;;;;;;;;;;5044627;28;20037;-75
2021/07/12 10:50:46;;;;;;;3.85;2.58;;;;;;;;;;5057081;28;20430;-72
2021/07/12 10:53:14;;;;;;;3.00;2.70;;;;;;;;;;5070900;28;20034;-72
2021/07/12 10:55:41;;;;;;;3.10;2.70;;;;;;;;;;5071299;28;20055;-71
2021/07/12 10:58:19;;;;;;;2.67;2.10;;;;;;;;;;5054514;28;20025;-72
2021/07/12 11:00:49;;;;;;;3.05;2.25;;;;;;;;;;5056966;28;20039;-71
2021/07/12 11:03:33;;;;;;;3.55;2.00;;;;;;;;;;5071123;28;20038;-72
2021/07/12 11:06:00;;;;;;;3.05;2.30;;;;;;;;;;5071563;28;20024;-72
2021/07/12 11:08:41;;;;;;;3.45;2.40;;;;;;;;;;5071116;28;20419;-72
2021/07/12 11:11:06;;;;;;;3.20;2.20;;;;;;;;;;5070782;28;20526;-73
2021/07/12 11:13:53;;;;;;;5.65;2.80;;;;;;;;;;5066446;28;20033;-73
2021/07/12 11:16:21;;;;;;;2.72;2.45;;;;;;;;;;5051098;28;20419;-72
2021/07/12 11:18:47;;;;;;;3.10;2.65;;;;;;;;;;5051009;28;20414;-72
2021/07/12 11:21:15;;;;;;;6.85;2.60;;;;;;;;;;5050938;28;20021;-72
2021/07/12 11:23:53;;;;;;;2.97;2.53;;;;;;;;;;5050558;28;20023;-75
2021/07/12 11:26:18;;;;;;;3.90;2.40;;;;;;;;;;5058209;28;20028;-72
2021/07/12 11:28:47;;;;;;;2.40;2.20;;;;;;;;;;5060922;28;20163;-71
2021/07/12 11:31:44;;;;;;;3.20;2.00;;;;;;;;;;5050692;28;20078;-72
2021/07/12 11:34:30;;;;;;;2.88;2.00;;;;;;;;;;5051012;28;20020;-72
2021/07/12 11:36:59;;;;;;;2.20;1.98;;;;;;;;;;5056152;28;20039;-73
2021/07/12 11:39:28;;;;;;;3.70;1.92;;;;;;;;;;5058206;28;20042;-72
2021/07/12 11:41:54;;;;;;;3.60;2.08;;;;;;;;;;5059267;28;20032;-72
2021/07/12 11:44:20;;;;;;;2.38;1.98;;;;;;;;;;5065006;28;20025;-72
2021/07/12 11:46:45;;;;;;;2.72;2.05;;;;;;;;;;5065448;28;20036;-72
2021/07/12 11:49:16;;;;;;;5.15;2.28;;;;;;;;;;5054853;28;20070;-73
2021/07/12 11:51:45;;;;;;;2.10;1.80;;;;;;;;;;5055139;28;20021;-72
2021/07/12 11:54:19;;;;;;;2.40;1.90;;;;;;;;;;5055188;28;20476;-72
2021/07/12 11:56:57;;;;;;;2.88;2.40;;;;;;;;;;5055359;28;20060;-72
2021/07/12 11:59:31;;;;;;;3.00;2.25;;;;;;;;;;5054704;28;20029;-77
2021/07/12 12:02:16;;;;;;;3.20;1.83;;;;;;;;;;5053761;28;20074;-73
2021/07/12 12:04:46;;;;;;;3.47;1.92;;;;;;;;;;5069062;28;20112;-73
2021/07/12 12:07:45;;;;;;;2.65;1.80;;;;;;;;;;5064795;28;20082;-74
2021/07/12 12:10:17;;;;;;;2.20;1.60;;;;;;;;;;5053821;28;20391;-73
2021/07/12 12:12:49;;;;;;;3.92;1.80;;;;;;;;;;5072544;28;20126;-74
2021/07/12 12:15:16;;;;;;;1.95;1.70;;;;;;;;;;5074010;28;20031;-75
2021/07/12 12:17:58;;;;;;;3.08;1.95;;;;;;;;;;5053924;28;20028;-76
2021/07/12 12:20:30;;;;;;;3.22;1.80;;;;;;;;;;5069829;28;20024;-73
2021/07/12 12:23:13;;;;;;;4.40;2.10;;;;;;;;;;5070430;28;20288;-75
2021/07/12 12:25:52;;;;;;;3.08;2.10;;;;;;;;;;5054075;28;20044;-75
2021/07/12 12:28:26;;;;;;;3.15;1.92;;;;;;;;;;5054640;28;20052;-76
2021/07/12 12:30:53;;;;;;;3.83;1.90;;;;;;;;;;5060738;28;20044;-75
2021/07/12 12:33:30;;;;;;;4.57;2.25;;;;;;;;;;5068182;28;20033;-75
2021/07/12 12:36:02;;;;;;;3.28;2.30;;;;;;;;;;5057107;28;20430;-77
2021/07/12 12:38:28;;;;;;;2.30;1.95;;;;;;;;;;5065313;28;20048;-75
2021/07/12 12:41:08;;;;;;;2.83;1.95;;;;;;;;;;5061876;28;20071;-75
2021/07/12 12:43:35;;;;;;;2.67;1.75;;;;;;;;;;5066962;28;20385;-76
2021/07/12 12:46:05;;;;;;;1.67;1.52;;;;;;;;;;5072838;28;20464;-75
2021/07/12 12:48:37;;;;;;;1.77;1.65;;;;;;;;;;5053600;28;20028;-75
2021/07/12 12:51:24;;;;;;;2.83;1.80;;;;;;;;;;5057320;28;20016;-75
2021/07/12 12:54:16;;;;;;;3.15;1.88;;;;;;;;;;5055101;28;20049;-76
2021/07/12 12:56:50;;;;;;;2.58;1.80;;;;;;;;;;5054875;28;20094;-75
2021/07/12 12:59:17;;;;;;;1.92;1.50;;;;;;;;;;5053412;28;20037;-75
2021/07/12 13:01:45;;;;;;;2.05;1.52;;;;;;;;;;5060233;28;20227;-74
2021/07/12 13:04:16;;;;;;;3.33;1.63;;;;;;;;;;5057171;28;20129;-74
2021/07/12 13:06:55;;;;;;;2.22;1.80;;;;;;;;;;5070377;28;20028;-75
2021/07/12 13:09:32;;;;;;;2.88;1.50;;;;;;;;;;5063586;28;20381;-75
2021/07/12 13:12:19;;;;;;;1.92;1.55;;;;;;;;;;5063288;28;20352;-75
2021/07/12 13:14:53;;;;;;;2.63;1.60;;;;;;;;;;5068872;28;20045;-74
2021/07/12 13:17:23;;;;;;;1.95;1.27;;;;;;;;;;5066569;28;20021;-75
2021/07/12 13:19:54;;;;;;;2.88;1.85;;;;;;;;;;5068284;28;20031;-74
2021/07/12 13:22:31;;;;;;;2.07;1.60;;;;;;;;;;5064182;28;20040;-74
2021/07/12 13:25:09;;;;;;;3.47;1.63;;;;;;;;;;5072571;28;20036;-74
2021/07/12 13:27:39;;;;;;;1.92;1.60;;;;;;;;;;5072885;28;20178;-73
2021/07/12 13:30:09;;;;;;;2.25;1.67;;;;;;;;;;5071553;28;20028;-74
2021/07/12 13:32:34;;;;;;;2.30;1.50;;;;;;;;;;5058349;28;20029;-74
2021/07/12 13:35:03;;;;;;;3.97;2.00;;;;;;;;;;5063272;28;20539;-74
2021/07/12 13:37:29;;;;;;;2.30;1.60;;;;;;;;;;5066661;28;20019;-75
2021/07/12 13:39:55;;;;;;;5.05;1.55;;;;;;;;;;5061145;28;20115;-73
2021/07/12 13:42:22;;;;;;;3.03;1.60;;;;;;;;;;5059444;28;20103;-74
2021/07/12 13:44:48;;;;;;;2.20;1.80;;;;;;;;;;5072666;28;20021;-73
2021/07/12 13:47:14;;;;;;;2.47;1.75;;;;;;;;;;5070393;28;20401;-73
2021/07/12 13:49:40;;;;;;;2.33;1.60;;;;;;;;;;5052151;28;20036;-73
2021/07/12 13:52:06;;;;;;;2.53;1.77;;;;;;;;;;5051985;28;20033;-74
2021/07/12 13:54:32;;;;;;;2.97;1.70;;;;;;;;;;5052291;28;20036;-74
2021/07/12 13:56:59;;;;;;;2.08;1.80;;;;;;;;;;5052307;28;20040;-74
2021/07/12 13:59:25;;;;;;;3.17;1.95;;;;;;;;;;5062379;28;20024;-76
2021/07/12 14:01:50;;;;;;;2.75;2.05;;;;;;;;;;5071771;28;20024;-75
2021/07/12 14:04:16;;;;;;;2.50;1.75;;;;;;;;;;5071689;28;20021;-74
2021/07/12 14:06:41;;;;;;;2.78;1.83;;;;;;;;;;5071742;28;20446;-76
2021/07/12 14:09:07;;;;;;;2.90;1.98;;;;;;;;;;5071675;28;20024;-75
2021/07/12 14:11:34;;;;;;;4.97;2.10;;;;;;;;;;5071081;28;20054;-75
2021/07/12 14:14:00;;;;;;;3.85;2.25;;;;;;;;;;5071311;28;20045;-75
2021/07/12 14:16:25;;;;;;;4.93;2.00;;;;;;;;;;5062295;28;20025;-76
2021/07/12 14:18:52;;;;;;;8.23;2.17;;;;;;;;;;5051718;28;20040;-75
2021/07/12 14:21:18;;;;;;;4.93;1.90;;;;;;;;;;5051470;28;20025;-76
2021/07/12 14:23:45;;;;;;;3.30;2.00;;;;;;;;;;5052920;28;20051;-75
2021/07/12 14:26:13;;;;;;;3.53;1.98;;;;;;;;;;5071321;28;20518;-75
2021/07/12 14:28:40;;;;;;;3.55;2.10;;;;;;;;;;5071665;28;20476;-75
2021/07/12 14:31:06;;;;;;;2.35;1.77;;;;;;;;;;5071494;28;20480;-74
2021/07/12 14:33:31;;;;;;;2.83;2.05;;;;;;;;;;5071368;28;20035;-75
2021/07/12 14:35:57;;;;;;;3.58;2.10;;;;;;;;;;5071105;28;20486;-75
2021/07/12 14:38:25;;;;;;;2.38;1.85;;;;;;;;;;5063757;28;20051;-75
2021/07/12 14:40:51;;;;;;;3.15;1.90;;;;;;;;;;5057758;28;20073;-76
2021/07/12 14:43:17;;;;;;;4.63;1.80;;;;;;;;;;5070943;28;20030;-76
2021/07/12 14:45:42;;;;;;;2.95;1.98;;;;;;;;;;5071207;28;20376;-76
2021/07/12 14:48:08;;;;;;;2.95;1.85;;;;;;;;;;5071044;28;20048;-76